sensor_id;sensor_type;location;lat;lon;timestamp;temperature;humidity
18712;DHT22;9485;49.386;8.674;2024-01-16T00:04:04;3.70;94.30
18712;DHT22;9485;49.386;8.674;2024-01-16T00:09:26;3.60;94.30
18712;DHT22;9485;49.386;8.674;2024-01-16T00:14:46;3.60;94.20
18712;DHT22;9485;49.386;8.674;2024-01-16T00:20:08;3.50;94.20
18712;DHT22;9485;49.386;8.674;2024-01-16T00:25:31;3.50;94.20
18712;DHT22;9485;49.386;8.674;2024-01-16T00:30:51;3.40;94.50
18712;DHT22;9485;49.386;8.674;2024-01-16T00:36:12;3.40;94.30
18712;DHT22;9485;49.386;8.674;2024-01-16T00:41:33;3.40;94.30
18712;DHT22;9485;49.386;8.674;2024-01-16T00:46:54;3.40;94.30
18712;DHT22;9485;49.386;8.674;2024-01-16T00:52:14;3.30;94.30
18712;DHT22;9485;49.386;8.674;2024-01-16T00:57:36;3.30;94.30
18712;DHT22;9485;49.386;8.674;2024-01-16T01:02:57;3.30;94.30
18712;DHT22;9485;49.386;8.674;2024-01-16T01:08:18;3.30;94.40
18712;DHT22;9485;49.386;8.674;2024-01-16T01:13:40;3.30;94.40
18712;DHT22;9485;49.386;8.674;2024-01-16T01:19:00;3.30;94.50
18712;DHT22;9485;49.386;8.674;2024-01-16T01:24:22;3.40;94.60
18712;DHT22;9485;49.386;8.674;2024-01-16T01:29:44;3.30;94.50
18712;DHT22;9485;49.386;8.674;2024-01-16T01:35:06;3.40;94.30
18712;DHT22;9485;49.386;8.674;2024-01-16T01:40:27;3.30;94.30
18712;DHT22;9485;49.386;8.674;2024-01-16T01:45:57;3.30;94.40
18712;DHT22;9485;49.386;8.674;2024-01-16T01:51:28;3.30;94.20
18712;DHT22;9485;49.386;8.674;2024-01-16T01:56:49;3.40;94.50
18712;DHT22;9485;49.386;8.674;2024-01-16T02:02:12;3.40;94.20
18712;DHT22;9485;49.386;8.674;2024-01-16T02:07:33;3.40;94.00
18712;DHT22;9485;49.386;8.674;2024-01-16T02:12:54;3.30;93.90
18712;DHT22;9485;49.386;8.674;2024-01-16T02:18:16;3.30;93.90
18712;DHT22;9485;49.386;8.674;2024-01-16T02:23:38;3.20;93.90
18712;DHT22;9485;49.386;8.674;2024-01-16T02:29:00;3.20;94.10
18712;DHT22;9485;49.386;8.674;2024-01-16T02:34:21;3.30;94.10
18712;DHT22;9485;49.386;8.674;2024-01-16T02:39:43;3.30;94.40
18712;DHT22;9485;49.386;8.674;2024-01-16T02:45:05;3.30;94.30
18712;DHT22;9485;49.386;8.674;2024-01-16T02:50:26;3.40;94.40
18712;DHT22;9485;49.386;8.674;2024-01-16T02:55:48;3.40;94.30
18712;DHT22;9485;49.386;8.674;2024-01-16T03:01:10;3.40;94.10
18712;DHT22;9485;49.386;8.674;2024-01-16T03:06:31;3.40;94.10
18712;DHT22;9485;49.386;8.674;2024-01-16T03:11:53;3.40;94.10
18712;DHT22;9485;49.386;8.674;2024-01-16T03:17:13;3.30;94.00
18712;DHT22;9485;49.386;8.674;2024-01-16T03:22:35;3.30;94.00
18712;DHT22;9485;49.386;8.674;2024-01-16T03:27:56;3.30;94.10
18712;DHT22;9485;49.386;8.674;2024-01-16T03:33:17;3.30;94.00
18712;DHT22;9485;49.386;8.674;2024-01-16T03:38:37;3.30;94.10
18712;DHT22;9485;49.386;8.674;2024-01-16T03:44:00;3.30;94.10
18712;DHT22;9485;49.386;8.674;2024-01-16T03:49:20;3.30;94.00
18712;DHT22;9485;49.386;8.674;2024-01-16T03:54:40;3.30;94.10
18712;DHT22;9485;49.386;8.674;2024-01-16T04:00:02;3.30;94.10
18712;DHT22;9485;49.386;8.674;2024-01-16T04:05:24;3.30;94.10
18712;DHT22;9485;49.386;8.674;2024-01-16T04:10:45;3.40;94.30
18712;DHT22;9485;49.386;8.674;2024-01-16T04:16:07;3.40;94.40
18712;DHT22;9485;49.386;8.674;2024-01-16T04:21:28;3.40;94.40
18712;DHT22;9485;49.386;8.674;2024-01-16T04:26:48;3.40;94.40
18712;DHT22;9485;49.386;8.674;2024-01-16T04:32:11;3.50;94.40
18712;DHT22;9485;49.386;8.674;2024-01-16T04:37:31;3.40;94.30
18712;DHT22;9485;49.386;8.674;2024-01-16T04:42:52;3.50;94.40
18712;DHT22;9485;49.386;8.674;2024-01-16T04:48:13;3.50;94.30
18712;DHT22;9485;49.386;8.674;2024-01-16T04:53:34;3.50;94.20
18712;DHT22;9485;49.386;8.674;2024-01-16T04:58:55;3.40;94.10
18712;DHT22;9485;49.386;8.674;2024-01-16T05:04:17;3.40;94.10
18712;DHT22;9485;49.386;8.674;2024-01-16T05:09:37;3.40;94.00
18712;DHT22;9485;49.386;8.674;2024-01-16T05:14:58;3.30;94.00
18712;DHT22;9485;49.386;8.674;2024-01-16T05:20:19;3.30;94.00
18712;DHT22;9485;49.386;8.674;2024-01-16T05:25:40;3.30;93.90
18712;DHT22;9485;49.386;8.674;2024-01-16T05:31:01;3.30;94.00
18712;DHT22;9485;49.386;8.674;2024-01-16T05:36:23;3.20;94.00
18712;DHT22;9485;49.386;8.674;2024-01-16T05:41:43;3.20;93.90
18712;DHT22;9485;49.386;8.674;2024-01-16T05:47:04;3.20;94.00
18712;DHT22;9485;49.386;8.674;2024-01-16T05:52:26;3.20;94.00
18712;DHT22;9485;49.386;8.674;2024-01-16T05:57:46;3.10;93.80
18712;DHT22;9485;49.386;8.674;2024-01-16T06:03:07;3.10;93.90
18712;DHT22;9485;49.386;8.674;2024-01-16T06:08:29;3.10;93.90
18712;DHT22;9485;49.386;8.674;2024-01-16T06:13:49;3.10;93.80
18712;DHT22;9485;49.386;8.674;2024-01-16T06:19:10;3.00;93.90
18712;DHT22;9485;49.386;8.674;2024-01-16T06:24:32;3.00;93.90
18712;DHT22;9485;49.386;8.674;2024-01-16T06:29:55;3.00;93.80
18712;DHT22;9485;49.386;8.674;2024-01-16T06:35:16;3.00;93.80
18712;DHT22;9485;49.386;8.674;2024-01-16T06:40:38;3.00;93.80
18712;DHT22;9485;49.386;8.674;2024-01-16T06:45:59;3.00;93.80
18712;DHT22;9485;49.386;8.674;2024-01-16T06:51:19;3.00;93.80
18712;DHT22;9485;49.386;8.674;2024-01-16T06:56:42;3.00;93.90
18712;DHT22;9485;49.386;8.674;2024-01-16T07:02:02;3.10;93.90
18712;DHT22;9485;49.386;8.674;2024-01-16T07:07:24;3.00;93.90
18712;DHT22;9485;49.386;8.674;2024-01-16T07:12:46;3.10;94.00
18712;DHT22;9485;49.386;8.674;2024-01-16T07:18:08;3.10;93.90
18712;DHT22;9485;49.386;8.674;2024-01-16T07:23:28;3.10;94.00
18712;DHT22;9485;49.386;8.674;2024-01-16T07:28:50;3.20;94.10
18712;DHT22;9485;49.386;8.674;2024-01-16T07:34:11;3.20;93.90
18712;DHT22;9485;49.386;8.674;2024-01-16T07:39:31;3.20;93.90
18712;DHT22;9485;49.386;8.674;2024-01-16T07:44:53;3.20;93.90
18712;DHT22;9485;49.386;8.674;2024-01-16T07:50:14;3.20;93.90
18712;DHT22;9485;49.386;8.674;2024-01-16T07:55:35;3.20;94.00
18712;DHT22;9485;49.386;8.674;2024-01-16T08:00:57;3.30;94.00
18712;DHT22;9485;49.386;8.674;2024-01-16T08:06:17;3.30;94.00
18712;DHT22;9485;49.386;8.674;2024-01-16T08:11:38;3.30;94.10
18712;DHT22;9485;49.386;8.674;2024-01-16T08:17:00;3.40;94.10
18712;DHT22;9485;49.386;8.674;2024-01-16T08:22:21;3.40;94.10
18712;DHT22;9485;49.386;8.674;2024-01-16T08:27:41;3.50;94.20
18712;DHT22;9485;49.386;8.674;2024-01-16T08:33:04;3.60;94.30
18712;DHT22;9485;49.386;8.674;2024-01-16T08:38:24;3.70;94.20
18712;DHT22;9485;49.386;8.674;2024-01-16T08:43:45;3.70;94.30
18712;DHT22;9485;49.386;8.674;2024-01-16T08:49:07;3.80;94.30
18712;DHT22;9485;49.386;8.674;2024-01-16T08:54:28;3.90;94.20
18712;DHT22;9485;49.386;8.674;2024-01-16T08:59:49;3.90;94.20
18712;DHT22;9485;49.386;8.674;2024-01-16T09:05:10;3.90;94.20
18712;DHT22;9485;49.386;8.674;2024-01-16T09:10:32;4.00;94.10
18712;DHT22;9485;49.386;8.674;2024-01-16T09:15:53;4.00;94.20
18712;DHT22;9485;49.386;8.674;2024-01-16T09:21:14;4.10;94.20
18712;DHT22;9485;49.386;8.674;2024-01-16T09:26:36;4.10;94.10
18712;DHT22;9485;49.386;8.674;2024-01-16T09:31:57;4.20;94.30
18712;DHT22;9485;49.386;8.674;2024-01-16T09:37:19;4.30;94.30
18712;DHT22;9485;49.386;8.674;2024-01-16T09:42:39;4.30;94.20
18712;DHT22;9485;49.386;8.674;2024-01-16T09:48:01;4.40;94.50
18712;DHT22;9485;49.386;8.674;2024-01-16T09:53:26;4.60;94.50
18712;DHT22;9485;49.386;8.674;2024-01-16T09:58:48;4.70;94.40
18712;DHT22;9485;49.386;8.674;2024-01-16T10:04:10;4.90;94.10
18712;DHT22;9485;49.386;8.674;2024-01-16T10:09:32;4.90;94.00
18712;DHT22;9485;49.386;8.674;2024-01-16T10:14:54;4.90;93.60
18712;DHT22;9485;49.386;8.674;2024-01-16T10:20:15;4.90;93.50
18712;DHT22;9485;49.386;8.674;2024-01-16T10:25:40;4.90;93.80
18712;DHT22;9485;49.386;8.674;2024-01-16T10:31:02;4.80;93.80
18712;DHT22;9485;49.386;8.674;2024-01-16T10:36:24;4.90;93.90
18712;DHT22;9485;49.386;8.674;2024-01-16T10:41:56;5.00;94.00
18712;DHT22;9485;49.386;8.674;2024-01-16T10:47:17;5.00;93.60
18712;DHT22;9485;49.386;8.674;2024-01-16T10:52:45;5.10;94.20
18712;DHT22;9485;49.386;8.674;2024-01-16T10:58:09;5.20;94.10
18712;DHT22;9485;49.386;8.674;2024-01-16T11:03:35;5.30;93.90
18712;DHT22;9485;49.386;8.674;2024-01-16T11:08:59;5.30;93.80
18712;DHT22;9485;49.386;8.674;2024-01-16T11:14:23;5.50;94.00
18712;DHT22;9485;49.386;8.674;2024-01-16T11:19:46;5.50;94.00
18712;DHT22;9485;49.386;8.674;2024-01-16T11:25:08;5.70;94.10
18712;DHT22;9485;49.386;8.674;2024-01-16T11:30:32;5.80;94.10
18712;DHT22;9485;49.386;8.674;2024-01-16T11:35:53;5.80;93.90
18712;DHT22;9485;49.386;8.674;2024-01-16T11:41:53;6.00;94.20
18712;DHT22;9485;49.386;8.674;2024-01-16T11:47:17;6.10;93.40
18712;DHT22;9485;49.386;8.674;2024-01-16T11:52:40;6.20;94.00
18712;DHT22;9485;49.386;8.674;2024-01-16T11:58:21;6.30;94.20
18712;DHT22;9485;49.386;8.674;2024-01-16T12:04:04;6.50;93.60
18712;DHT22;9485;49.386;8.674;2024-01-16T12:09:27;6.50;93.60
18712;DHT22;9485;49.386;8.674;2024-01-16T12:14:52;6.60;93.90
18712;DHT22;9485;49.386;8.674;2024-01-16T12:20:19;6.60;93.70
18712;DHT22;9485;49.386;8.674;2024-01-16T12:25:40;6.60;93.60
18712;DHT22;9485;49.386;8.674;2024-01-16T12:31:00;6.80;94.30
18712;DHT22;9485;49.386;8.674;2024-01-16T12:36:22;6.80;94.20
18712;DHT22;9485;49.386;8.674;2024-01-16T12:41:45;6.90;93.80
18712;DHT22;9485;49.386;8.674;2024-01-16T12:47:07;6.90;93.80
18712;DHT22;9485;49.386;8.674;2024-01-16T12:52:28;7.00;94.50
18712;DHT22;9485;49.386;8.674;2024-01-16T12:58:13;7.20;94.60
18712;DHT22;9485;49.386;8.674;2024-01-16T13:03:34;7.40;93.60
18712;DHT22;9485;49.386;8.674;2024-01-16T13:09:06;7.50;94.50
18712;DHT22;9485;49.386;8.674;2024-01-16T13:14:29;7.60;93.70
18712;DHT22;9485;49.386;8.674;2024-01-16T13:19:50;7.70;94.10
18712;DHT22;9485;49.386;8.674;2024-01-16T13:25:12;7.70;93.90
18712;DHT22;9485;49.386;8.674;2024-01-16T13:30:33;7.70;93.60
18712;DHT22;9485;49.386;8.674;2024-01-16T13:35:54;7.70;93.50
18712;DHT22;9485;49.386;8.674;2024-01-16T13:41:16;7.60;93.20
18712;DHT22;9485;49.386;8.674;2024-01-16T13:46:37;7.50;92.90
18712;DHT22;9485;49.386;8.674;2024-01-16T13:51:58;7.50;93.00
18712;DHT22;9485;49.386;8.674;2024-01-16T13:57:19;7.50;93.00
18712;DHT22;9485;49.386;8.674;2024-01-16T14:02:41;7.30;92.90
18712;DHT22;9485;49.386;8.674;2024-01-16T14:08:03;7.30;93.20
18712;DHT22;9485;49.386;8.674;2024-01-16T14:13:25;7.30;93.40
18712;DHT22;9485;49.386;8.674;2024-01-16T14:18:46;7.30;93.40
18712;DHT22;9485;49.386;8.674;2024-01-16T14:24:06;7.40;93.80
18712;DHT22;9485;49.386;8.674;2024-01-16T14:29:28;7.40;93.70
18712;DHT22;9485;49.386;8.674;2024-01-16T14:34:48;7.50;93.20
18712;DHT22;9485;49.386;8.674;2024-01-16T14:40:10;7.50;93.40
18712;DHT22;9485;49.386;8.674;2024-01-16T14:45:36;7.50;93.40
18712;DHT22;9485;49.386;8.674;2024-01-16T14:50:56;7.50;93.10
18712;DHT22;9485;49.386;8.674;2024-01-16T14:56:17;7.50;93.10
18712;DHT22;9485;49.386;8.674;2024-01-16T15:01:40;7.40;93.00
18712;DHT22;9485;49.386;8.674;2024-01-16T15:07:01;7.30;92.50
18712;DHT22;9485;49.386;8.674;2024-01-16T15:12:22;7.20;92.70
18712;DHT22;9485;49.386;8.674;2024-01-16T15:17:44;7.10;92.50
18712;DHT22;9485;49.386;8.674;2024-01-16T15:23:04;7.00;92.20
18712;DHT22;9485;49.386;8.674;2024-01-16T15:28:25;6.90;92.30
18712;DHT22;9485;49.386;8.674;2024-01-16T15:33:47;6.80;92.10
18712;DHT22;9485;49.386;8.674;2024-01-16T15:39:07;6.60;91.80
18712;DHT22;9485;49.386;8.674;2024-01-16T15:44:29;6.50;92.00
18712;DHT22;9485;49.386;8.674;2024-01-16T15:49:51;6.30;91.80
18712;DHT22;9485;49.386;8.674;2024-01-16T15:55:13;6.10;91.50
18712;DHT22;9485;49.386;8.674;2024-01-16T16:00:34;6.00;91.60
18712;DHT22;9485;49.386;8.674;2024-01-16T16:05:55;5.80;91.50
18712;DHT22;9485;49.386;8.674;2024-01-16T16:11:16;5.60;91.40
18712;DHT22;9485;49.386;8.674;2024-01-16T16:16:36;5.40;91.40
18712;DHT22;9485;49.386;8.674;2024-01-16T16:21:59;5.20;91.30
18712;DHT22;9485;49.386;8.674;2024-01-16T16:27:23;5.10;91.30
18712;DHT22;9485;49.386;8.674;2024-01-16T16:32:44;4.90;91.20
18712;DHT22;9485;49.386;8.674;2024-01-16T16:38:07;4.70;91.40
18712;DHT22;9485;49.386;8.674;2024-01-16T16:43:28;4.60;91.30
18712;DHT22;9485;49.386;8.674;2024-01-16T16:48:49;4.40;91.50
18712;DHT22;9485;49.386;8.674;2024-01-16T16:54:12;4.30;91.60
18712;DHT22;9485;49.386;8.674;2024-01-16T16:59:34;4.20;91.80
18712;DHT22;9485;49.386;8.674;2024-01-16T17:04:55;4.00;91.70
18712;DHT22;9485;49.386;8.674;2024-01-16T17:10:19;3.90;91.80
18712;DHT22;9485;49.386;8.674;2024-01-16T17:15:39;3.80;91.80
18712;DHT22;9485;49.386;8.674;2024-01-16T17:21:00;3.70;91.90
18712;DHT22;9485;49.386;8.674;2024-01-16T17:26:22;3.70;92.00
18712;DHT22;9485;49.386;8.674;2024-01-16T17:31:43;3.60;92.00
18712;DHT22;9485;49.386;8.674;2024-01-16T17:37:03;3.50;92.10
18712;DHT22;9485;49.386;8.674;2024-01-16T17:42:25;3.50;92.20
18712;DHT22;9485;49.386;8.674;2024-01-16T17:47:46;3.40;92.10
18712;DHT22;9485;49.386;8.674;2024-01-16T17:53:06;3.40;92.10
18712;DHT22;9485;49.386;8.674;2024-01-16T17:58:29;3.30;92.00
18712;DHT22;9485;49.386;8.674;2024-01-16T18:03:49;3.20;91.90
18712;DHT22;9485;49.386;8.674;2024-01-16T18:09:10;3.10;92.00
18712;DHT22;9485;49.386;8.674;2024-01-16T18:14:32;3.00;92.00
18712;DHT22;9485;49.386;8.674;2024-01-16T18:19:52;3.00;92.00
18712;DHT22;9485;49.386;8.674;2024-01-16T18:25:14;2.90;92.10
18712;DHT22;9485;49.386;8.674;2024-01-16T18:30:36;2.80;92.10
18712;DHT22;9485;49.386;8.674;2024-01-16T18:35:58;2.80;92.00
18712;DHT22;9485;49.386;8.674;2024-01-16T18:41:20;2.70;92.10
18712;DHT22;9485;49.386;8.674;2024-01-16T18:46:42;2.70;92.10
18712;DHT22;9485;49.386;8.674;2024-01-16T18:52:03;2.60;92.20
18712;DHT22;9485;49.386;8.674;2024-01-16T18:57:24;2.60;92.30
18712;DHT22;9485;49.386;8.674;2024-01-16T19:02:46;2.60;92.30
18712;DHT22;9485;49.386;8.674;2024-01-16T19:08:07;2.50;92.30
18712;DHT22;9485;49.386;8.674;2024-01-16T19:13:27;2.50;92.30
18712;DHT22;9485;49.386;8.674;2024-01-16T19:18:49;2.40;92.30
18712;DHT22;9485;49.386;8.674;2024-01-16T19:24:09;2.40;92.20
18712;DHT22;9485;49.386;8.674;2024-01-16T19:29:31;2.40;92.30
18712;DHT22;9485;49.386;8.674;2024-01-16T19:34:53;2.40;92.30
18712;DHT22;9485;49.386;8.674;2024-01-16T19:40:14;2.30;92.30
18712;DHT22;9485;49.386;8.674;2024-01-16T19:45:36;2.30;92.30
18712;DHT22;9485;49.386;8.674;2024-01-16T19:50:57;2.30;92.20
18712;DHT22;9485;49.386;8.674;2024-01-16T19:56:19;2.20;92.20
18712;DHT22;9485;49.386;8.674;2024-01-16T20:01:39;2.20;92.20
18712;DHT22;9485;49.386;8.674;2024-01-16T20:07:02;2.10;92.20
18712;DHT22;9485;49.386;8.674;2024-01-16T20:12:22;2.10;92.20
18712;DHT22;9485;49.386;8.674;2024-01-16T20:17:43;2.10;92.20
18712;DHT22;9485;49.386;8.674;2024-01-16T20:23:06;2.00;92.10
18712;DHT22;9485;49.386;8.674;2024-01-16T20:28:27;2.00;92.00
18712;DHT22;9485;49.386;8.674;2024-01-16T20:33:47;1.90;92.00
18712;DHT22;9485;49.386;8.674;2024-01-16T20:39:10;1.90;92.00
18712;DHT22;9485;49.386;8.674;2024-01-16T20:44:31;1.80;92.00
18712;DHT22;9485;49.386;8.674;2024-01-16T20:49:52;1.80;92.00
18712;DHT22;9485;49.386;8.674;2024-01-16T20:55:14;1.80;92.10
18712;DHT22;9485;49.386;8.674;2024-01-16T21:00:34;1.70;92.10
18712;DHT22;9485;49.386;8.674;2024-01-16T21:05:55;1.70;92.20
18712;DHT22;9485;49.386;8.674;2024-01-16T21:11:18;1.70;92.20
18712;DHT22;9485;49.386;8.674;2024-01-16T21:16:39;1.60;92.10
18712;DHT22;9485;49.386;8.674;2024-01-16T21:22:00;1.60;92.10
18712;DHT22;9485;49.386;8.674;2024-01-16T21:27:22;1.60;92.10
18712;DHT22;9485;49.386;8.674;2024-01-16T21:32:43;1.60;92.00
18712;DHT22;9485;49.386;8.674;2024-01-16T21:38:04;1.50;92.00
18712;DHT22;9485;49.386;8.674;2024-01-16T21:43:26;1.50;92.20
18712;DHT22;9485;49.386;8.674;2024-01-16T21:48:46;1.50;92.90
18712;DHT22;9485;49.386;8.674;2024-01-16T21:54:07;1.50;93.40
18712;DHT22;9485;49.386;8.674;2024-01-16T21:59:29;1.60;93.60
18712;DHT22;9485;49.386;8.674;2024-01-16T22:04:50;1.60;93.70
18712;DHT22;9485;49.386;8.674;2024-01-16T22:10:11;1.60;93.20
18712;DHT22;9485;49.386;8.674;2024-01-16T22:15:33;1.60;92.90
18712;DHT22;9485;49.386;8.674;2024-01-16T22:20:54;1.50;92.70
18712;DHT22;9485;49.386;8.674;2024-01-16T22:26:14;1.50;92.60
18712;DHT22;9485;49.386;8.674;2024-01-16T22:31:40;1.50;92.30
18712;DHT22;9485;49.386;8.674;2024-01-16T22:37:01;1.40;92.10
18712;DHT22;9485;49.386;8.674;2024-01-16T22:42:22;1.40;92.20
18712;DHT22;9485;49.386;8.674;2024-01-16T22:47:43;1.40;92.30
18712;DHT22;9485;49.386;8.674;2024-01-16T22:53:04;1.40;92.20
18712;DHT22;9485;49.386;8.674;2024-01-16T22:58:25;1.40;92.20
18712;DHT22;9485;49.386;8.674;2024-01-16T23:03:47;1.40;92.20
18712;DHT22;9485;49.386;8.674;2024-01-16T23:09:13;1.40;92.10
18712;DHT22;9485;49.386;8.674;2024-01-16T23:14:33;1.40;92.20
18712;DHT22;9485;49.386;8.674;2024-01-16T23:19:56;1.40;92.10
18712;DHT22;9485;49.386;8.674;2024-01-16T23:25:16;1.40;92.00
18712;DHT22;9485;49.386;8.674;2024-01-16T23:30:37;1.40;92.00
18712;DHT22;9485;49.386;8.674;2024-01-16T23:35:59;1.40;92.10
18712;DHT22;9485;49.386;8.674;2024-01-16T23:41:20;1.40;92.00
18712;DHT22;9485;49.386;8.674;2024-01-16T23:46:41;1.40;92.00
18712;DHT22;9485;49.386;8.674;2024-01-16T23:52:03;1.40;91.90
18712;DHT22;9485;49.386;8.674;2024-01-16T23:57:26;1.40;91.80
